createdAt,value
2022-09-06T00:00:15.455Z,16.06
2022-09-06T00:01:15.061Z,15.83
2022-09-06T00:02:11.825Z,16.01
2022-09-06T00:03:09.408Z,15.65
2022-09-06T00:04:06.305Z,15.72
2022-09-06T00:05:04.949Z,16.19
2022-09-06T00:06:11.025Z,16.05
2022-09-06T00:07:07.804Z,15.98
2022-09-06T00:08:06.005Z,15.89
2022-09-06T00:09:02.773Z,16.01
2022-09-06T00:09:59.473Z,15.12
2022-09-06T00:11:01.396Z,15.76
2022-09-06T00:11:58.318Z,15.52
2022-09-06T00:12:55.454Z,15.52
2022-09-06T00:13:52.291Z,15.40
2022-09-06T00:14:49.853Z,15.59
2022-09-06T00:15:46.948Z,15.22
2022-09-06T00:16:43.750Z,15.42
2022-09-06T00:17:40.585Z,14.74
2022-09-06T00:18:37.686Z,15.57
2022-09-06T00:19:34.436Z,15.65
2022-09-06T00:20:32.688Z,15.60
2022-09-06T00:21:31.144Z,15.59
2022-09-06T00:22:27.898Z,15.66
2022-09-06T00:23:24.652Z,15.49
2022-09-06T00:24:21.361Z,15.33
2022-09-06T00:25:18.091Z,15.40
2022-09-06T00:26:15.230Z,15.26
2022-09-06T00:27:11.925Z,15.37
2022-09-06T00:28:08.634Z,15.47
2022-09-06T00:29:05.373Z,15.50
2022-09-06T00:30:04.702Z,15.74
2022-09-06T00:31:12.240Z,15.75
2022-09-06T00:32:09.162Z,15.60
2022-09-06T00:33:05.929Z,15.69
2022-09-06T00:34:02.752Z,15.18
2022-09-06T00:34:59.548Z,15.38
2022-09-06T00:36:00.637Z,15.20
2022-09-06T00:36:57.372Z,15.21
2022-09-06T00:38:02.172Z,15.36
2022-09-06T00:38:59.012Z,15.35
2022-09-06T00:39:55.768Z,15.44
2022-09-06T00:40:52.562Z,15.43
2022-09-06T00:41:49.355Z,15.27
2022-09-06T00:42:46.121Z,15.22
2022-09-06T00:43:43.811Z,14.90
2022-09-06T00:44:40.969Z,15.17
2022-09-06T00:45:37.738Z,15.18
2022-09-06T00:46:39.071Z,15.25
2022-09-06T00:47:40.290Z,15.00
2022-09-06T00:48:39.927Z,15.48
2022-09-06T00:49:46.429Z,15.29
2022-09-06T00:50:46.874Z,15.28
2022-09-06T00:51:43.827Z,15.27
2022-09-06T00:52:43.215Z,15.18
2022-09-06T00:53:39.983Z,14.74
2022-09-06T00:54:37.996Z,15.05
2022-09-06T00:55:35.043Z,15.05
2022-09-06T00:56:34.913Z,15.13
2022-09-06T00:57:32.845Z,15.15
2022-09-06T00:58:30.030Z,15.17
2022-09-06T00:59:32.027Z,15.37
2022-09-06T01:00:28.857Z,15.16
2022-09-06T01:01:25.736Z,15.24
2022-09-06T01:02:22.675Z,15.28
2022-09-06T01:03:23.322Z,14.89
2022-09-06T01:04:20.314Z,14.79
2022-09-06T01:05:18.326Z,14.22
2022-09-06T01:06:17.734Z,15.39
2022-09-06T01:07:47.195Z,15.26
2022-09-06T01:09:10.376Z,15.59
2022-09-06T01:10:22.247Z,15.51
2022-09-06T01:11:53.608Z,15.27
2022-09-06T01:13:04.492Z,15.37
2022-09-06T01:14:16.557Z,15.16
2022-09-06T01:15:13.251Z,15.06
2022-09-06T01:16:37.639Z,15.11
2022-09-06T01:17:46.350Z,15.04
2022-09-06T01:18:54.853Z,15.00
2022-09-06T01:20:29.523Z,14.85
2022-09-06T01:21:45.762Z,14.91
2022-09-06T01:23:07.150Z,14.91
2022-09-06T01:24:09.627Z,14.99
2022-09-06T01:25:35.545Z,14.91
2022-09-06T01:26:56.677Z,14.96
2022-09-06T01:28:08.044Z,14.49
2022-09-06T01:29:16.214Z,14.69
2022-09-06T01:30:18.460Z,14.46
2022-09-06T01:31:17.865Z,14.62
2022-09-06T01:32:43.187Z,14.65
2022-09-06T01:34:04.123Z,14.61
2022-09-06T01:35:25.132Z,14.66
2022-09-06T01:36:32.612Z,14.85
2022-09-06T01:37:29.657Z,15.03
2022-09-06T01:38:27.254Z,14.88
2022-09-06T01:39:31.020Z,14.91
2022-09-06T01:40:28.548Z,14.83
2022-09-06T01:41:25.490Z,14.69
2022-09-06T01:42:30.109Z,14.22
2022-09-06T01:43:38.558Z,14.35
2022-09-06T01:44:41.016Z,14.57
2022-09-06T01:45:54.283Z,14.59
2022-09-06T01:47:13.992Z,15.04
2022-09-06T01:48:30.287Z,14.85
2022-09-06T01:49:56.008Z,14.69
2022-09-06T01:51:01.588Z,14.58
2022-09-06T01:52:16.226Z,14.64
2022-09-06T01:53:34.485Z,14.52
2022-09-06T01:54:47.345Z,14.51
2022-09-06T01:56:09.057Z,14.41
2022-09-06T01:57:24.159Z,14.46
2022-09-06T01:59:11.620Z,14.47
2022-09-06T02:00:11.893Z,14.42
2022-09-06T02:01:17.389Z,14.45
2022-09-06T02:02:27.688Z,14.51
2022-09-06T02:03:59.951Z,14.53
2022-09-06T02:05:01.427Z,14.53
2022-09-06T02:06:21.086Z,14.56
2022-09-06T02:07:26.105Z,14.55
2022-09-06T02:08:31.699Z,14.52
2022-09-06T02:09:36.189Z,14.67
2022-09-06T02:11:03.618Z,14.92
2022-09-06T02:12:04.325Z,14.73
2022-09-06T02:13:06.686Z,14.62
2022-09-06T02:14:12.575Z,14.63
2022-09-06T02:15:16.586Z,14.63
2022-09-06T02:16:24.829Z,13.61
2022-09-06T02:17:27.941Z,14.23
2022-09-06T02:18:51.107Z,14.41
2022-09-06T02:20:08.088Z,14.51
2022-09-06T02:21:09.170Z,14.54
2022-09-06T02:22:11.511Z,14.38
2022-09-06T02:23:11.261Z,14.32
2022-09-06T02:24:15.508Z,14.48
2022-09-06T02:25:22.522Z,14.44
2022-09-06T02:26:26.188Z,14.44
2022-09-06T02:27:23.106Z,14.48
2022-09-06T02:28:20.069Z,14.47
2022-09-06T02:29:18.600Z,14.52
2022-09-06T02:30:15.855Z,14.55
2022-09-06T02:31:22.212Z,14.65
2022-09-06T02:32:26.742Z,14.60
2022-09-06T02:33:31.021Z,14.14
2022-09-06T02:34:28.018Z,14.53
2022-09-06T02:35:25.232Z,14.43
2022-09-06T02:36:23.072Z,14.03
2022-09-06T02:37:20.868Z,14.41
2022-09-06T02:38:20.938Z,14.40
2022-09-06T02:39:17.777Z,14.39
2022-09-06T02:40:14.706Z,14.41
2022-09-06T02:41:15.739Z,14.37
2022-09-06T02:42:15.734Z,14.53
2022-09-06T02:43:12.659Z,14.34
2022-09-06T02:44:09.476Z,13.55
2022-09-06T02:45:06.888Z,14.13
2022-09-06T02:46:03.946Z,14.48
2022-09-06T02:47:01.558Z,14.53
2022-09-06T02:47:58.278Z,14.52
2022-09-06T02:48:55.149Z,14.48
2022-09-06T02:49:51.949Z,14.44
2022-09-06T02:50:48.738Z,14.18
2022-09-06T02:51:45.437Z,14.35
2022-09-06T02:52:42.215Z,13.63
2022-09-06T02:53:39.679Z,13.98
2022-09-06T02:54:36.396Z,14.43
2022-09-06T02:55:33.648Z,14.42
2022-09-06T02:56:30.486Z,14.15
2022-09-06T02:57:27.212Z,14.66
2022-09-06T02:58:24.542Z,14.72
2022-09-06T02:59:21.314Z,14.59
2022-09-06T03:00:18.074Z,14.53
2022-09-06T03:01:14.889Z,14.48
2022-09-06T03:02:11.837Z,13.71
2022-09-06T03:03:08.616Z,14.27
2022-09-06T03:04:05.366Z,14.43
2022-09-06T03:05:02.971Z,13.79
2022-09-06T03:05:59.736Z,14.44
2022-09-06T03:06:57.254Z,14.19
2022-09-06T03:07:55.083Z,14.47
2022-09-06T03:08:51.810Z,14.52
2022-09-06T03:09:48.518Z,14.31
2022-09-06T03:10:50.081Z,14.31
2022-09-06T03:11:46.823Z,14.29
2022-09-06T03:12:44.479Z,14.27
2022-09-06T03:13:41.246Z,13.86
2022-09-06T03:14:37.941Z,14.26
2022-09-06T03:15:34.735Z,14.23
2022-09-06T03:16:31.512Z,13.58
2022-09-06T03:17:28.303Z,13.62
2022-09-06T03:18:27.569Z,13.95
2022-09-06T03:19:24.326Z,14.12
2022-09-06T03:20:21.062Z,14.07
2022-09-06T03:21:17.827Z,14.09
2022-09-06T03:22:14.661Z,13.81
2022-09-06T03:23:11.499Z,14.13
2022-09-06T03:24:08.208Z,14.13
2022-09-06T03:25:10.082Z,14.12
2022-09-06T03:26:07.987Z,14.18
2022-09-06T03:27:05.173Z,14.22
2022-09-06T03:28:02.392Z,14.16
2022-09-06T03:28:59.162Z,14.13
2022-09-06T03:29:55.944Z,14.08
2022-09-06T03:30:53.350Z,14.10
2022-09-06T03:31:50.164Z,14.09
2022-09-06T03:32:46.889Z,14.09
2022-09-06T03:33:43.593Z,14.21
2022-09-06T03:34:40.301Z,14.05
2022-09-06T03:35:37.134Z,14.14
2022-09-06T03:36:33.888Z,14.28
2022-09-06T03:37:30.643Z,14.18
2022-09-06T03:38:29.504Z,13.95
2022-09-06T03:39:26.267Z,14.41
2022-09-06T03:40:23.320Z,14.29
2022-09-06T03:41:20.302Z,14.19
2022-09-06T03:42:17.074Z,13.79
2022-09-06T03:43:14.433Z,14.13
2022-09-06T03:44:11.135Z,14.19
2022-09-06T03:45:08.581Z,14.26
2022-09-06T03:46:05.508Z,14.27
2022-09-06T03:47:03.109Z,13.88
2022-09-06T03:47:59.859Z,14.26
2022-09-06T03:48:57.722Z,14.18
2022-09-06T03:49:54.437Z,14.12
2022-09-06T03:50:55.818Z,13.89
2022-09-06T03:51:53.149Z,13.97
2022-09-06T03:52:49.885Z,14.08
2022-09-06T03:53:46.660Z,13.58
2022-09-06T03:54:43.595Z,13.71
2022-09-06T03:55:40.366Z,13.97
2022-09-06T03:56:37.136Z,12.88
2022-09-06T03:57:33.859Z,14.07
2022-09-06T03:58:32.357Z,13.88
2022-09-06T03:59:29.105Z,13.64
2022-09-06T04:00:25.861Z,13.79
2022-09-06T04:01:22.618Z,13.56
2022-09-06T04:02:19.586Z,14.01
2022-09-06T04:03:19.407Z,13.89
2022-09-06T04:04:16.713Z,13.80
2022-09-06T04:05:13.453Z,12.97
2022-09-06T04:06:10.557Z,13.81
2022-09-06T04:07:07.286Z,13.87
2022-09-06T04:08:05.909Z,13.78
2022-09-06T04:09:03.697Z,13.83
2022-09-06T04:10:00.455Z,13.04
2022-09-06T04:10:59.277Z,13.81
2022-09-06T04:11:56.054Z,14.07
2022-09-06T04:12:52.927Z,14.03
2022-09-06T04:13:49.657Z,13.60
2022-09-06T04:14:46.317Z,13.73
2022-09-06T04:15:47.189Z,13.69
2022-09-06T04:16:44.033Z,13.99
2022-09-06T04:17:45.839Z,13.80
2022-09-06T04:18:42.660Z,13.88
2022-09-06T04:19:39.367Z,14.03
2022-09-06T04:20:36.103Z,13.91
2022-09-06T04:21:33.691Z,13.65
2022-09-06T04:22:30.796Z,13.81
2022-09-06T04:23:29.312Z,13.82
2022-09-06T04:24:26.070Z,14.04
2022-09-06T04:25:22.802Z,14.11
2022-09-06T04:26:19.594Z,13.73
2022-09-06T04:27:16.370Z,14.10
2022-09-06T04:28:13.458Z,14.10
2022-09-06T04:29:10.191Z,14.15
2022-09-06T04:30:07.743Z,13.89
2022-09-06T04:31:05.381Z,14.27
2022-09-06T04:32:02.437Z,14.20
2022-09-06T04:32:59.245Z,14.21
2022-09-06T04:33:56.020Z,14.26
2022-09-06T04:34:52.725Z,14.32
2022-09-06T04:35:50.415Z,14.40
2022-09-06T04:36:48.520Z,14.41
2022-09-06T04:37:45.467Z,14.39
2022-09-06T04:38:44.823Z,14.12
2022-09-06T04:39:41.662Z,14.22
2022-09-06T04:40:38.393Z,14.38
2022-09-06T04:41:35.112Z,14.68
2022-09-06T04:42:31.873Z,14.65
2022-09-06T04:43:28.690Z,14.90
2022-09-06T04:44:25.411Z,14.84
2022-09-06T04:45:22.156Z,14.61
2022-09-06T04:46:25.486Z,14.88
2022-09-06T04:47:22.662Z,14.15
2022-09-06T04:48:19.459Z,15.23
2022-09-06T04:49:16.231Z,14.47
2022-09-06T04:50:12.934Z,15.49
2022-09-06T04:51:09.648Z,15.64
2022-09-06T04:52:06.406Z,15.37
2022-09-06T04:53:03.841Z,14.86
2022-09-06T04:54:00.572Z,15.71
2022-09-06T04:54:57.302Z,15.74
2022-09-06T04:55:57.418Z,15.45
2022-09-06T04:56:54.158Z,15.41
2022-09-06T04:57:51.448Z,15.37
2022-09-06T04:58:50.067Z,15.34
2022-09-06T04:59:46.817Z,15.42
2022-09-06T05:00:44.795Z,15.47
2022-09-06T05:01:41.614Z,15.59
2022-09-06T05:02:38.451Z,15.54
2022-09-06T05:03:35.342Z,15.63
2022-09-06T05:04:32.240Z,15.46
2022-09-06T05:05:29.083Z,15.80
2022-09-06T05:06:26.288Z,15.57
2022-09-06T05:07:22.997Z,16.00
2022-09-06T05:08:19.763Z,15.91
2022-09-06T05:09:16.520Z,15.81
2022-09-06T05:10:13.309Z,15.77
2022-09-06T05:11:11.085Z,16.40
2022-09-06T05:12:07.977Z,16.60
2022-09-06T05:13:04.751Z,16.67
2022-09-06T05:14:01.540Z,16.54
2022-09-06T05:14:58.256Z,16.69
2022-09-06T05:15:55.011Z,16.86
2022-09-06T05:16:51.859Z,16.57
2022-09-06T05:17:48.826Z,16.76
2022-09-06T05:18:45.583Z,16.50
2022-09-06T05:19:42.309Z,16.52
2022-09-06T05:20:39.148Z,16.70
2022-09-06T05:21:35.887Z,16.56
2022-09-06T05:22:32.625Z,16.47
2022-09-06T05:23:29.668Z,16.45
2022-09-06T05:24:26.379Z,16.42
2022-09-06T05:25:23.163Z,16.33
2022-09-06T05:26:19.973Z,15.98
2022-09-06T05:27:16.675Z,16.14
2022-09-06T05:28:14.086Z,16.14
2022-09-06T05:29:10.770Z,16.09
2022-09-06T05:30:08.141Z,16.17
2022-09-06T05:31:26.079Z,16.02
2022-09-06T05:32:23.160Z,16.39
2022-09-06T05:33:22.418Z,16.37
2022-09-06T05:34:19.118Z,16.34
2022-09-06T05:35:15.958Z,16.27
2022-09-06T05:36:12.688Z,15.67
2022-09-06T05:37:09.403Z,16.29
2022-09-06T05:38:06.177Z,16.22
2022-09-06T05:40:17.344Z,16.13
2022-09-06T05:41:14.069Z,15.45
2022-09-06T05:42:10.800Z,16.19
2022-09-06T05:43:07.498Z,16.18
2022-09-06T05:44:04.255Z,16.14
2022-09-06T05:45:01.860Z,16.23
2022-09-06T05:45:59.194Z,16.13
2022-09-06T05:46:55.960Z,16.12
2022-09-06T05:47:52.713Z,16.14
2022-09-06T05:49:00.470Z,15.84
2022-09-06T05:49:57.395Z,16.06
2022-09-06T05:51:02.537Z,15.77
2022-09-06T05:51:59.334Z,15.93
2022-09-06T05:52:56.157Z,16.20
2022-09-06T05:53:52.879Z,15.94
2022-09-06T05:54:49.597Z,16.43
2022-09-06T05:55:46.307Z,16.83
2022-09-06T05:56:43.077Z,16.79
2022-09-06T05:57:39.853Z,16.19
2022-09-06T05:58:37.927Z,16.45
2022-09-06T05:59:34.662Z,16.42
2022-09-06T06:00:31.388Z,16.06
2022-09-06T06:01:30.723Z,16.88
2022-09-06T06:02:27.611Z,16.95
2022-09-06T06:03:24.368Z,16.67
2022-09-06T06:04:22.449Z,16.69
2022-09-06T06:05:19.213Z,16.50
2022-09-06T06:06:15.928Z,16.76
2022-09-06T06:07:12.693Z,16.68
2022-09-06T06:08:09.423Z,16.61
2022-09-06T06:09:06.262Z,16.21
2022-09-06T06:10:06.010Z,16.72
2022-09-06T06:11:03.085Z,16.61
2022-09-06T06:11:59.854Z,16.66
2022-09-06T06:12:57.723Z,16.53
2022-09-06T06:13:54.510Z,16.42
2022-09-06T06:14:51.257Z,16.40
2022-09-06T06:15:47.982Z,17.14
2022-09-06T06:16:44.733Z,17.42
2022-09-06T06:17:41.470Z,17.48
2022-09-06T06:18:38.546Z,17.36
2022-09-06T06:19:35.298Z,17.19
2022-09-06T06:20:32.025Z,17.10
2022-09-06T06:21:31.777Z,17.24
2022-09-06T06:22:28.589Z,17.15
2022-09-06T06:23:25.942Z,16.84
2022-09-06T06:24:22.978Z,17.18
2022-09-06T06:25:23.078Z,17.26
2022-09-06T06:26:20.248Z,16.41
2022-09-06T06:27:17.021Z,17.59
2022-09-06T06:28:14.394Z,17.75
2022-09-06T06:29:11.165Z,18.00
2022-09-06T06:30:08.500Z,18.05
2022-09-06T06:31:07.573Z,17.93
2022-09-06T06:32:04.431Z,17.33
2022-09-06T06:33:02.543Z,17.10
2022-09-06T06:33:59.949Z,16.58
2022-09-06T06:34:56.659Z,17.48
2022-09-06T06:36:01.601Z,17.31
2022-09-06T06:36:59.183Z,17.33
2022-09-06T06:37:56.406Z,17.41
2022-09-06T06:38:55.495Z,17.66
2022-09-06T06:39:52.323Z,17.66
2022-09-06T06:40:49.130Z,17.22
2022-09-06T06:41:46.023Z,18.02
2022-09-06T06:42:42.942Z,18.16
2022-09-06T06:43:40.761Z,18.24
2022-09-06T06:44:37.478Z,17.44
2022-09-06T06:45:34.187Z,18.26
2022-09-06T06:46:34.513Z,18.40
2022-09-06T06:47:31.373Z,18.58
2022-09-06T06:48:28.863Z,18.31
2022-09-06T06:49:25.718Z,18.13
2022-09-06T06:50:22.460Z,18.39
2022-09-06T06:51:21.068Z,18.38
2022-09-06T06:52:17.837Z,18.24
2022-09-06T06:53:14.630Z,18.16
2022-09-06T06:54:11.362Z,18.24
2022-09-06T06:55:08.572Z,18.37
2022-09-06T06:56:16.722Z,18.14
2022-09-06T06:57:13.473Z,18.23
2022-09-06T06:58:10.211Z,18.48
2022-09-06T06:59:07.960Z,18.66
2022-09-06T07:00:05.422Z,18.79
2022-09-06T07:01:05.228Z,18.76
2022-09-06T07:02:02.233Z,18.68
2022-09-06T07:03:00.103Z,18.02
2022-09-06T07:03:58.307Z,18.50
2022-09-06T07:04:55.112Z,18.63
2022-09-06T07:08:25.348Z,18.04
2022-09-06T07:09:22.797Z,18.71
2022-09-06T07:10:35.563Z,18.41
2022-09-06T07:11:32.799Z,18.62
2022-09-06T07:12:29.610Z,18.89
2022-09-06T07:13:26.396Z,18.71
2022-09-06T07:14:23.150Z,19.16
2022-09-06T07:15:19.909Z,19.29
2022-09-06T07:16:20.541Z,19.22
2022-09-06T07:17:17.295Z,18.97
2022-09-06T07:18:16.185Z,18.98
2022-09-06T07:20:29.787Z,19.10
2022-09-06T07:21:42.530Z,19.18
2022-09-06T07:22:40.440Z,19.31
2022-09-06T07:24:54.072Z,19.93
2022-09-06T07:25:51.095Z,19.46
2022-09-06T07:28:09.020Z,19.58
2022-09-06T07:29:07.169Z,19.58
2022-09-06T07:30:04.179Z,19.50
2022-09-06T07:31:01.478Z,19.25
2022-09-06T07:32:14.677Z,19.49
2022-09-06T07:33:11.804Z,19.96
2022-09-06T07:34:08.586Z,19.98
2022-09-06T07:35:05.765Z,19.86
2022-09-06T07:36:04.978Z,20.05
2022-09-06T07:37:01.699Z,20.15
2022-09-06T07:38:00.758Z,20.20
2022-09-06T07:38:57.554Z,19.55
2022-09-06T07:39:54.575Z,20.29
2022-09-06T07:40:56.722Z,19.94
2022-09-06T07:41:53.532Z,20.04
2022-09-06T07:42:50.301Z,19.75
2022-09-06T07:43:47.610Z,19.89
2022-09-06T07:44:44.356Z,20.08
2022-09-06T07:45:41.771Z,19.98
2022-09-06T07:46:38.601Z,20.32
2022-09-06T07:48:52.176Z,20.57
2022-09-06T07:51:16.314Z,20.41
2022-09-06T07:53:31.337Z,20.05
2022-09-06T07:54:30.807Z,19.94
2022-09-06T07:55:27.834Z,19.47
2022-09-06T07:56:25.537Z,20.02
2022-09-06T07:57:23.384Z,20.53
2022-09-06T07:58:20.126Z,20.57
2022-09-06T07:59:17.045Z,20.40
2022-09-06T08:00:13.973Z,20.87
2022-09-06T08:01:28.310Z,20.83
2022-09-06T08:02:25.202Z,20.31
2022-09-06T08:03:22.063Z,20.13
2022-09-06T08:04:18.903Z,20.49
2022-09-06T08:09:10.422Z,20.74
2022-09-06T08:10:07.667Z,21.00
2022-09-06T08:11:07.513Z,20.77
2022-09-06T08:12:07.098Z,20.77
2022-09-06T08:13:04.011Z,20.91
2022-09-06T08:14:03.161Z,20.85
2022-09-06T08:14:59.919Z,20.91
2022-09-06T08:16:04.747Z,21.04
2022-09-06T08:17:02.447Z,20.92
2022-09-06T08:17:59.189Z,20.94
2022-09-06T08:18:58.386Z,21.15
2022-09-06T08:19:55.172Z,20.94
2022-09-06T08:20:52.129Z,21.17
2022-09-06T08:21:49.677Z,20.97
2022-09-06T08:22:46.413Z,20.82
2022-09-06T08:23:50.838Z,20.95
2022-09-06T08:24:47.562Z,20.84
2022-09-06T08:25:44.318Z,20.91
2022-09-06T08:26:43.032Z,20.43
2022-09-06T08:27:39.751Z,20.47
2022-09-06T08:28:36.495Z,19.91
2022-09-06T08:29:34.029Z,20.71
2022-09-06T08:30:30.885Z,20.72
2022-09-06T08:31:30.435Z,20.89
2022-09-06T08:32:27.249Z,21.13
2022-09-06T08:33:25.666Z,21.28
2022-09-06T08:34:22.534Z,21.09
2022-09-06T08:35:19.275Z,21.47
2022-09-06T08:36:16.075Z,21.52
2022-09-06T08:37:12.835Z,21.20
2022-09-06T08:38:09.594Z,21.38
2022-09-06T08:39:09.962Z,21.51
2022-09-06T08:40:07.409Z,21.37
2022-09-06T08:41:12.185Z,21.21
2022-09-06T08:42:12.025Z,21.10
2022-09-06T08:43:20.068Z,21.16
2022-09-06T08:45:55.827Z,20.68
2022-09-06T08:46:55.993Z,21.60
2022-09-06T08:47:52.929Z,20.54
2022-09-06T08:48:49.874Z,21.20
2022-09-06T08:50:00.522Z,20.83
2022-09-06T08:51:06.061Z,21.26
2022-09-06T08:52:12.150Z,21.27
2022-09-06T08:53:18.835Z,21.61
2022-09-06T08:54:33.649Z,21.76
2022-09-06T08:55:54.984Z,21.70
2022-09-06T08:57:18.392Z,21.90
2022-09-06T08:58:36.960Z,21.85
2022-09-06T08:59:39.855Z,21.75
2022-09-06T09:00:38.897Z,21.49
2022-09-06T09:01:54.047Z,21.73
2022-09-06T09:03:04.294Z,21.43
2022-09-06T09:04:05.531Z,21.71
2022-09-06T09:05:05.893Z,21.85
2022-09-06T09:06:05.571Z,21.71
2022-09-06T09:07:16.869Z,21.90
2022-09-06T09:08:36.461Z,21.98
2022-09-06T09:09:35.754Z,22.06
2022-09-06T09:10:48.207Z,21.73
2022-09-06T09:11:50.978Z,21.89
2022-09-06T09:12:50.422Z,21.70
2022-09-06T09:13:56.074Z,21.87
2022-09-06T09:15:05.445Z,21.67
2022-09-06T09:16:02.615Z,21.80
2022-09-06T09:17:06.320Z,21.32
2022-09-06T09:18:04.209Z,21.16
2022-09-06T09:19:05.272Z,21.62
2022-09-06T09:20:02.369Z,21.75
2022-09-06T09:20:59.338Z,21.96
2022-09-06T09:21:56.170Z,21.98
2022-09-06T09:22:52.920Z,22.10
2022-09-06T09:23:55.272Z,22.22
2022-09-06T09:24:53.093Z,21.88
2022-09-06T09:25:53.693Z,21.42
2022-09-06T09:26:57.538Z,22.00
2022-09-06T09:27:57.897Z,22.13
2022-09-06T09:29:05.154Z,22.24
2022-09-06T09:31:42.078Z,22.25
2022-09-06T09:32:44.961Z,22.30
2022-09-06T09:33:41.744Z,21.42
2022-09-06T09:34:40.490Z,22.20
2022-09-06T09:35:42.245Z,22.45
2022-09-06T09:36:40.105Z,22.48
2022-09-06T09:37:56.003Z,21.81
2022-09-06T09:38:56.993Z,22.56
2022-09-06T09:39:58.075Z,22.49
2022-09-06T09:40:56.426Z,22.24
2022-09-06T09:41:53.443Z,22.19
2022-09-06T09:42:50.651Z,22.14
2022-09-06T09:44:04.654Z,21.44
2022-09-06T09:45:05.703Z,22.14
2022-09-06T09:46:29.807Z,22.71
2022-09-06T09:47:29.831Z,22.65
2022-09-06T09:48:28.079Z,22.73
2022-09-06T09:49:25.283Z,22.48
2022-09-06T09:50:24.894Z,22.19
2022-09-06T09:51:27.621Z,21.84
2022-09-06T09:52:31.230Z,22.60
2022-09-06T09:53:27.945Z,22.65
2022-09-06T09:54:32.915Z,22.82
2022-09-06T09:55:29.806Z,22.76
2022-09-06T09:56:26.453Z,22.88
2022-09-06T09:57:24.534Z,22.68
2022-09-06T09:58:39.626Z,22.98
2022-09-06T09:59:36.280Z,23.03
2022-09-06T10:00:43.255Z,22.95
2022-09-06T10:01:40.106Z,22.73
2022-09-06T10:02:39.747Z,22.56
2022-09-06T10:05:21.104Z,22.74
2022-09-06T10:07:51.072Z,23.02
2022-09-06T10:08:48.189Z,22.98
2022-09-06T10:09:57.076Z,22.88
2022-09-06T10:10:53.877Z,22.95
2022-09-06T10:11:54.337Z,22.99
2022-09-06T10:13:12.590Z,22.63
2022-09-06T10:14:25.527Z,22.81
2022-09-06T10:15:40.171Z,23.01
2022-09-06T10:16:45.495Z,22.74
2022-09-06T10:17:51.725Z,22.63
2022-09-06T10:18:52.750Z,22.35
2022-09-06T10:19:49.779Z,23.04
2022-09-06T10:20:58.300Z,23.10
2022-09-06T10:22:07.890Z,22.56
2022-09-06T10:23:05.002Z,23.19
2022-09-06T10:24:28.522Z,23.17
2022-09-06T10:25:37.674Z,23.18
2022-09-06T10:26:53.350Z,23.09
2022-09-06T10:28:11.827Z,23.11
2022-09-06T10:30:10.193Z,22.86
2022-09-06T10:31:34.654Z,22.61
2022-09-06T10:32:45.943Z,23.27
2022-09-06T10:34:03.814Z,23.08
2022-09-06T10:35:15.071Z,23.09
2022-09-06T10:36:19.432Z,23.09
2022-09-06T10:37:19.343Z,23.29
2022-09-06T10:39:01.586Z,22.90
2022-09-06T10:40:10.186Z,23.38
2022-09-06T10:41:25.287Z,23.36
2022-09-06T10:42:28.145Z,23.47
2022-09-06T10:43:38.561Z,23.50
2022-09-06T10:45:07.625Z,23.48
2022-09-06T10:46:14.667Z,23.58
2022-09-06T10:47:15.070Z,23.66
2022-09-06T10:48:20.750Z,23.77
2022-09-06T10:49:19.862Z,23.70
2022-09-06T10:50:17.479Z,23.68
2022-09-06T10:51:29.312Z,23.66
2022-09-06T10:52:34.436Z,23.29
2022-09-06T10:53:53.297Z,23.61
2022-09-06T10:54:52.761Z,23.65
2022-09-06T10:56:04.271Z,22.88
2022-09-06T11:00:02.220Z,23.61
2022-09-06T11:00:59.261Z,23.58
2022-09-06T11:04:13.314Z,23.79
2022-09-06T11:06:45.803Z,23.80
2022-09-06T11:09:18.106Z,23.18
2022-09-06T11:10:30.299Z,22.97
2022-09-06T11:11:42.790Z,23.53
2022-09-06T11:12:55.778Z,23.68
2022-09-06T11:13:52.525Z,23.48
2022-09-06T11:14:49.394Z,24.01
2022-09-06T11:15:55.311Z,24.02
2022-09-06T11:17:01.692Z,23.71
2022-09-06T11:18:09.192Z,23.83
2022-09-06T11:19:29.715Z,23.94
2022-09-06T11:20:51.694Z,23.98
2022-09-06T11:22:24.141Z,24.01
2022-09-06T11:23:40.763Z,23.84
2022-09-06T11:24:43.696Z,24.08
2022-09-06T11:26:13.323Z,23.88
2022-09-06T11:27:19.375Z,23.98
2022-09-06T11:28:50.591Z,23.67
2022-09-06T11:29:56.568Z,23.98
2022-09-06T11:30:58.080Z,24.01
2022-09-06T11:33:26.785Z,24.10
2022-09-06T11:34:35.311Z,24.17
2022-09-06T11:35:34.856Z,24.23
2022-09-06T11:36:36.324Z,24.28
2022-09-06T11:37:39.612Z,23.99
2022-09-06T11:38:36.486Z,24.36
2022-09-06T11:41:06.356Z,23.91
2022-09-06T11:42:08.982Z,24.20
2022-09-06T11:43:05.650Z,24.51
2022-09-06T11:44:04.447Z,24.64
2022-09-06T11:45:04.083Z,24.64
2022-09-06T11:46:00.858Z,24.42
2022-09-06T11:46:58.940Z,24.60
2022-09-06T11:47:56.096Z,24.52
2022-09-06T11:49:05.949Z,24.54
2022-09-06T11:50:21.003Z,24.59
2022-09-06T11:51:35.621Z,24.34
2022-09-06T11:52:57.752Z,24.59
2022-09-06T11:53:57.772Z,24.69
2022-09-06T11:54:55.162Z,24.79
2022-09-06T11:56:16.957Z,24.97
2022-09-06T11:57:21.276Z,24.67
2022-09-06T11:58:17.959Z,24.91
2022-09-06T11:59:41.770Z,24.54
2022-09-06T12:00:38.630Z,25.04
2022-09-06T12:01:37.682Z,24.91
2022-09-06T12:02:41.721Z,25.13
2022-09-06T12:05:00.735Z,25.00
2022-09-06T12:06:15.430Z,24.97
2022-09-06T12:07:13.498Z,24.92
2022-09-06T12:08:19.148Z,24.95
2022-09-06T12:09:31.258Z,24.91
2022-09-06T12:10:49.746Z,25.09
2022-09-06T12:11:46.796Z,25.07
2022-09-06T12:12:50.837Z,25.04
2022-09-06T12:13:53.388Z,24.64
2022-09-06T12:14:50.129Z,24.95
2022-09-06T12:15:54.588Z,25.31
2022-09-06T12:17:05.124Z,25.31
2022-09-06T12:18:01.910Z,25.35
2022-09-06T12:19:00.122Z,25.28
2022-09-06T12:20:06.897Z,25.34
2022-09-06T12:21:04.073Z,25.35
2022-09-06T12:22:00.851Z,24.48
2022-09-06T12:22:57.577Z,25.39
2022-09-06T12:23:54.326Z,25.39
2022-09-06T12:24:55.818Z,25.25
2022-09-06T12:25:58.804Z,24.86
2022-09-06T12:27:18.429Z,25.16
2022-09-06T12:28:29.501Z,25.07
2022-09-06T12:29:28.330Z,24.40
2022-09-06T12:30:38.350Z,24.88
2022-09-06T12:31:39.958Z,24.75
2022-09-06T12:32:43.924Z,23.99
2022-09-06T12:33:40.947Z,24.06
2022-09-06T12:34:38.301Z,23.86
2022-09-06T12:37:00.563Z,24.29
2022-09-06T12:38:00.275Z,24.32
2022-09-06T12:39:01.074Z,24.29
2022-09-06T12:39:59.820Z,24.25
2022-09-06T12:40:59.124Z,24.23
2022-09-06T12:42:23.030Z,24.24
2022-09-06T12:43:20.249Z,24.06
2022-09-06T12:44:24.055Z,24.32
2022-09-06T12:45:27.212Z,24.44
2022-09-06T12:46:25.832Z,24.48
2022-09-06T12:47:25.302Z,24.35
2022-09-06T12:48:41.171Z,23.55
2022-09-06T12:49:37.977Z,23.72
2022-09-06T12:50:35.449Z,24.25
2022-09-06T12:51:33.184Z,24.34
2022-09-06T12:52:31.214Z,24.10
2022-09-06T12:53:28.260Z,24.46
2022-09-06T12:54:28.570Z,24.21
2022-09-06T12:55:38.568Z,24.23
2022-09-06T12:56:35.417Z,24.15
2022-09-06T12:57:32.119Z,24.00
2022-09-06T12:58:30.490Z,23.72
2022-09-06T12:59:27.269Z,24.12
2022-09-06T13:00:31.566Z,24.22
2022-09-06T13:01:36.888Z,24.35
2022-09-06T13:02:57.004Z,23.95
2022-09-06T13:04:08.407Z,23.93
2022-09-06T13:05:09.297Z,23.18
2022-09-06T13:06:07.062Z,23.88
2022-09-06T13:07:06.396Z,24.01
2022-09-06T13:08:03.907Z,24.12
2022-09-06T13:09:02.311Z,24.04
2022-09-06T13:09:59.364Z,24.09
2022-09-06T13:10:57.356Z,24.21
2022-09-06T13:12:07.118Z,23.99
2022-09-06T13:13:05.143Z,24.28
2022-09-06T13:14:14.281Z,24.18
2022-09-06T13:15:19.956Z,24.25
2022-09-06T13:16:23.723Z,24.13
2022-09-06T13:17:30.002Z,24.19
2022-09-06T13:18:32.471Z,24.21
2022-09-06T13:19:39.208Z,24.06
2022-09-06T13:20:36.005Z,24.13
2022-09-06T13:21:33.534Z,24.05
2022-09-06T13:22:45.670Z,24.15
2022-09-06T13:23:47.531Z,24.18
2022-09-06T13:24:47.614Z,24.21
2022-09-06T13:25:50.840Z,24.20
2022-09-06T13:26:47.657Z,24.24
2022-09-06T13:27:46.725Z,24.10
2022-09-06T13:28:43.468Z,23.52
2022-09-06T13:29:54.030Z,23.51
2022-09-06T13:31:13.031Z,24.16
2022-09-06T13:32:14.622Z,24.22
2022-09-06T13:33:26.559Z,24.12
2022-09-06T13:34:29.077Z,23.76
2022-09-06T13:35:31.585Z,24.04
2022-09-06T13:36:32.966Z,24.14
2022-09-06T13:37:33.846Z,24.27
2022-09-06T13:38:40.768Z,24.24
2022-09-06T13:39:46.389Z,24.06
2022-09-06T13:41:09.265Z,24.17
2022-09-06T13:42:24.696Z,24.13
2022-09-06T13:43:24.289Z,24.20
2022-09-06T13:44:29.966Z,24.06
2022-09-06T13:45:31.821Z,24.21
2022-09-06T13:46:28.592Z,24.15
2022-09-06T13:47:29.823Z,24.21